Time;durP1;ratioP1;P1;durP2;ratioP2;P2;SDS_P1;SDS_P2;PMS_P1;PMS_P2;Temp;Humidity;BMP_temperature;BMP_pressure;BME280_temperature;BME280_humidity;BME280_pressure;Samples;Min_cycle;Max_cycle;Signal;HPM_P1;HPM_P2
2022/03/10 00:02:25;;;;;;;17.33;10.68;;;;;;;;;;5088846;28;20123;-64
2022/03/10 00:04:51;;;;;;;19.50;10.63;;;;;;;;;;5087604;28;20048;-62
2022/03/10 00:07:17;;;;;;;16.25;11.20;;;;;;;;;;5086482;28;20028;-62
2022/03/10 00:09:43;;;;;;;18.58;10.93;;;;;;;;;;5085419;28;20165;-62
2022/03/10 00:12:10;;;;;;;15.20;10.43;;;;;;;;;;5088845;28;20040;-62
2022/03/10 00:14:36;;;;;;;16.92;10.52;;;;;;;;;;5086233;28;20036;-62
2022/03/10 00:17:02;;;;;;;16.80;10.80;;;;;;;;;;5086960;28;20043;-62
2022/03/10 00:19:28;;;;;;;16.42;10.38;;;;;;;;;;5086146;28;20127;-62
2022/03/10 00:21:54;;;;;;;17.23;10.18;;;;;;;;;;5084758;28;20031;-63
2022/03/10 00:24:20;;;;;;;17.33;10.85;;;;;;;;;;5079921;28;20422;-62
2022/03/10 00:26:46;;;;;;;15.68;10.75;;;;;;;;;;5088824;28;20054;-64
2022/03/10 00:29:12;;;;;;;16.70;11.00;;;;;;;;;;5084749;28;20047;-63
2022/03/10 00:31:38;;;;;;;17.25;10.68;;;;;;;;;;5086435;28;20040;-62
2022/03/10 00:34:04;;;;;;;15.70;10.57;;;;;;;;;;5089690;28;20044;-63
2022/03/10 00:36:30;;;;;;;19.42;11.15;;;;;;;;;;5090269;28;20039;-64
2022/03/10 00:38:56;;;;;;;18.88;11.30;;;;;;;;;;5092557;28;20128;-62
2022/03/10 00:41:22;;;;;;;16.23;10.10;;;;;;;;;;5089381;28;20071;-63
2022/03/10 00:43:49;;;;;;;16.80;10.63;;;;;;;;;;5087513;28;20068;-63
2022/03/10 00:46:15;;;;;;;17.05;10.40;;;;;;;;;;5089887;28;20101;-63
2022/03/10 00:48:41;;;;;;;20.55;10.63;;;;;;;;;;5092162;28;20050;-63
2022/03/10 00:51:08;;;;;;;17.38;10.30;;;;;;;;;;5093161;28;20111;-62
2022/03/10 00:53:34;;;;;;;18.13;10.48;;;;;;;;;;5092753;28;20093;-62
2022/03/10 00:56:00;;;;;;;18.88;11.45;;;;;;;;;;5093587;28;20076;-61
2022/03/10 00:58:26;;;;;;;16.65;11.60;;;;;;;;;;5092036;28;20093;-62
2022/03/10 01:00:53;;;;;;;19.73;12.40;;;;;;;;;;5091688;28;20044;-61
2022/03/10 01:03:19;;;;;;;18.30;11.70;;;;;;;;;;5090007;28;20095;-62
2022/03/10 01:05:45;;;;;;;19.15;11.73;;;;;;;;;;5091122;28;20068;-62
2022/03/10 01:08:12;;;;;;;19.88;12.05;;;;;;;;;;5091476;28;20032;-62
2022/03/10 01:10:38;;;;;;;17.27;12.50;;;;;;;;;;5091806;28;20119;-63
2022/03/10 01:13:04;;;;;;;21.27;13.45;;;;;;;;;;5078697;28;20048;-62
2022/03/10 01:15:30;;;;;;;19.77;12.25;;;;;;;;;;5092235;28;20036;-62
2022/03/10 01:17:56;;;;;;;23.00;13.07;;;;;;;;;;5084841;28;20032;-61
2022/03/10 01:20:24;;;;;;;20.35;12.57;;;;;;;;;;5085225;28;20076;-62
2022/03/10 01:22:50;;;;;;;20.08;12.63;;;;;;;;;;5088795;28;20039;-62
2022/03/10 01:25:18;;;;;;;20.75;12.05;;;;;;;;;;5088568;28;20109;-61
2022/03/10 01:27:44;;;;;;;25.00;12.05;;;;;;;;;;5089163;28;20044;-61
2022/03/10 01:30:10;;;;;;;20.17;13.48;;;;;;;;;;5085819;28;20032;-62
2022/03/10 01:32:36;;;;;;;18.73;12.55;;;;;;;;;;5072740;28;20052;-61
2022/03/10 01:35:03;;;;;;;23.02;12.20;;;;;;;;;;5091276;28;20028;-64
2022/03/10 01:37:30;;;;;;;20.33;12.05;;;;;;;;;;5089003;28;20036;-61
2022/03/10 01:39:56;;;;;;;21.40;12.80;;;;;;;;;;5086217;28;20044;-62
2022/03/10 01:42:25;;;;;;;24.45;12.07;;;;;;;;;;5087223;28;20051;-61
2022/03/10 01:44:54;;;;;;;17.95;11.85;;;;;;;;;;5089283;28;20068;-63
2022/03/10 01:47:21;;;;;;;17.40;10.52;;;;;;;;;;5091192;28;20048;-61
2022/03/10 01:49:47;;;;;;;16.85;10.32;;;;;;;;;;5086496;28;20444;-63
2022/03/10 01:52:13;;;;;;;19.55;10.98;;;;;;;;;;5090815;28;20036;-61
2022/03/10 01:54:43;;;;;;;17.15;10.80;;;;;;;;;;5089361;28;20047;-61
2022/03/10 01:57:11;;;;;;;19.23;11.38;;;;;;;;;;5090560;28;20032;-64
2022/03/10 01:59:37;;;;;;;16.35;10.65;;;;;;;;;;5089077;28;20082;-63
2022/03/10 02:02:04;;;;;;;16.88;10.15;;;;;;;;;;5084183;28;20044;-62
2022/03/10 02:04:30;;;;;;;16.92;10.38;;;;;;;;;;5089283;28;20500;-65
2022/03/10 02:06:56;;;;;;;20.42;10.68;;;;;;;;;;5088953;28;20037;-63
2022/03/10 02:12:08;;;;;;;20.17;11.07;;;;;;;;;;5088334;28;20032;-62
2022/03/10 02:17:22;;;;;;;18.70;10.52;;;;;;;;;;5091114;28;20048;-63
2022/03/10 02:19:51;;;;;;;15.98;10.27;;;;;;;;;;5087006;28;20419;-62
2022/03/10 02:22:18;;;;;;;18.05;10.88;;;;;;;;;;5088865;28;20149;-62
2022/03/10 02:24:45;;;;;;;20.05;10.68;;;;;;;;;;5091787;28;20039;-62
2022/03/10 02:27:16;;;;;;;22.38;10.75;;;;;;;;;;5087688;28;20406;-62
2022/03/10 02:29:43;;;;;;;18.15;11.45;;;;;;;;;;5090811;28;20036;-63
2022/03/10 02:32:10;;;;;;;17.88;10.77;;;;;;;;;;5085196;28;20502;-63
2022/03/10 02:34:36;;;;;;;15.90;10.55;;;;;;;;;;5088824;28;20048;-63
2022/03/10 02:37:02;;;;;;;18.45;10.90;;;;;;;;;;5090004;28;20048;-63
2022/03/10 02:39:28;;;;;;;17.45;10.05;;;;;;;;;;5088877;28;20043;-62
2022/03/10 02:41:54;;;;;;;15.57;10.55;;;;;;;;;;5089741;28;20051;-63
2022/03/10 02:44:20;;;;;;;18.38;11.45;;;;;;;;;;5087183;28;20119;-62
2022/03/10 02:46:46;;;;;;;18.02;10.90;;;;;;;;;;5089164;28;20135;-62
2022/03/10 02:49:12;;;;;;;18.30;11.18;;;;;;;;;;5091148;28;20048;-62
2022/03/10 02:51:38;;;;;;;15.82;10.43;;;;;;;;;;5089982;28;20425;-63
2022/03/10 02:54:04;;;;;;;18.73;10.65;;;;;;;;;;5086698;28;20050;-62
2022/03/10 02:56:30;;;;;;;21.38;11.20;;;;;;;;;;5086958;28;20651;-62
2022/03/10 02:58:56;;;;;;;18.17;10.85;;;;;;;;;;5087963;28;20127;-62
2022/03/10 03:01:22;;;;;;;16.80;10.88;;;;;;;;;;5082357;28;20048;-62
2022/03/10 03:03:48;;;;;;;18.90;10.88;;;;;;;;;;5088004;28;20525;-62
2022/03/10 03:06:15;;;;;;;17.38;11.23;;;;;;;;;;5080412;28;20758;-63
2022/03/10 03:08:41;;;;;;;16.83;11.02;;;;;;;;;;5085980;28;20035;-63
2022/03/10 03:11:07;;;;;;;17.48;10.85;;;;;;;;;;5088045;28;20028;-63
2022/03/10 03:13:34;;;;;;;21.95;11.50;;;;;;;;;;5088684;28;20387;-64
2022/03/10 03:16:00;;;;;;;20.30;11.07;;;;;;;;;;5084052;28;20052;-62
2022/03/10 03:18:26;;;;;;;17.00;10.75;;;;;;;;;;5086943;28;20040;-63
2022/03/10 03:20:52;;;;;;;16.23;10.32;;;;;;;;;;5086927;28;20036;-63
2022/03/10 03:23:18;;;;;;;19.50;11.32;;;;;;;;;;5088294;28;20156;-63
2022/03/10 03:25:44;;;;;;;21.45;10.88;;;;;;;;;;5085553;28;20065;-63
2022/03/10 03:28:10;;;;;;;19.48;10.95;;;;;;;;;;5085374;28;20040;-62
2022/03/10 03:30:36;;;;;;;19.58;10.95;;;;;;;;;;5087692;28;20112;-62
2022/03/10 03:33:02;;;;;;;18.77;10.80;;;;;;;;;;5086100;28;20036;-61
2022/03/10 03:35:28;;;;;;;17.35;10.68;;;;;;;;;;5088181;28;20091;-63
2022/03/10 03:37:54;;;;;;;17.10;11.73;;;;;;;;;;5082500;28;20039;-63
2022/03/10 03:40:20;;;;;;;19.02;10.90;;;;;;;;;;5089153;28;20032;-63
2022/03/10 03:42:46;;;;;;;18.25;11.23;;;;;;;;;;5087869;28;20082;-63
2022/03/10 03:45:12;;;;;;;20.65;11.38;;;;;;;;;;5089622;28;20044;-63
2022/03/10 03:47:38;;;;;;;17.10;10.38;;;;;;;;;;5086303;28;20379;-62
2022/03/10 03:50:05;;;;;;;19.02;11.88;;;;;;;;;;5090365;28;20040;-62
2022/03/10 03:52:31;;;;;;;18.50;10.75;;;;;;;;;;5086806;28;20083;-63
2022/03/10 03:54:57;;;;;;;20.52;11.07;;;;;;;;;;5089674;28;20062;-62
2022/03/10 03:57:23;;;;;;;20.45;11.65;;;;;;;;;;5084412;28;20140;-63
2022/03/10 03:59:49;;;;;;;20.05;12.05;;;;;;;;;;5088041;28;20055;-63
2022/03/10 04:02:15;;;;;;;20.38;11.15;;;;;;;;;;5083151;28;20074;-62
2022/03/10 04:04:41;;;;;;;18.15;10.85;;;;;;;;;;5089130;28;20455;-63
2022/03/10 04:07:07;;;;;;;19.13;11.25;;;;;;;;;;5089321;28;20143;-62
2022/03/10 04:09:33;;;;;;;20.75;11.20;;;;;;;;;;5085031;28;20115;-62
2022/03/10 04:12:00;;;;;;;22.25;12.00;;;;;;;;;;5086996;28;20534;-62
2022/03/10 04:14:26;;;;;;;19.85;11.38;;;;;;;;;;5088657;28;20047;-63
2022/03/10 04:16:52;;;;;;;22.10;11.05;;;;;;;;;;5082498;28;20048;-63
2022/03/10 04:19:18;;;;;;;19.88;11.23;;;;;;;;;;5086258;28;20044;-63
2022/03/10 04:21:44;;;;;;;16.90;10.88;;;;;;;;;;5089318;28;20394;-63
2022/03/10 04:24:10;;;;;;;18.08;11.43;;;;;;;;;;5085810;28;20119;-64
2022/03/10 04:26:36;;;;;;;17.83;11.15;;;;;;;;;;5088816;28;20058;-62
2022/03/10 04:29:02;;;;;;;19.85;11.70;;;;;;;;;;5087496;28;20063;-62
2022/03/10 04:31:28;;;;;;;19.25;12.05;;;;;;;;;;5087086;28;20044;-63
2022/03/10 04:33:54;;;;;;;17.05;11.00;;;;;;;;;;5088589;28;20120;-64
2022/03/10 04:36:20;;;;;;;17.60;10.90;;;;;;;;;;5088603;28;20036;-62
2022/03/10 04:38:46;;;;;;;20.98;10.98;;;;;;;;;;5084386;28;20036;-63
2022/03/10 04:41:13;;;;;;;20.55;10.88;;;;;;;;;;5082803;28;20055;-64
2022/03/10 04:43:39;;;;;;;17.85;10.70;;;;;;;;;;5089057;28;20499;-64
2022/03/10 04:46:06;;;;;;;17.70;11.98;;;;;;;;;;5088644;28;20165;-63
2022/03/10 04:48:32;;;;;;;16.33;10.45;;;;;;;;;;5089243;28;20040;-62
2022/03/10 04:50:58;;;;;;;18.65;11.52;;;;;;;;;;5087259;28;20113;-63
2022/03/10 04:53:24;;;;;;;18.35;11.23;;;;;;;;;;5089119;28;20078;-63
2022/03/10 04:55:50;;;;;;;17.88;10.82;;;;;;;;;;5088026;28;20088;-63
2022/03/10 04:58:16;;;;;;;17.73;10.13;;;;;;;;;;5083455;28;20036;-63
2022/03/10 05:00:42;;;;;;;18.88;11.57;;;;;;;;;;5087197;28;20043;-62
2022/03/10 05:03:08;;;;;;;17.83;10.52;;;;;;;;;;5081362;28;20498;-64
2022/03/10 05:05:34;;;;;;;19.73;11.95;;;;;;;;;;5087229;28;20039;-61
2022/03/10 05:08:00;;;;;;;19.27;11.43;;;;;;;;;;5083852;28;20042;-63
2022/03/10 05:10:26;;;;;;;18.27;10.98;;;;;;;;;;5085653;28;20032;-63
2022/03/10 05:12:54;;;;;;;18.10;11.50;;;;;;;;;;5081634;28;20059;-63
2022/03/10 05:15:21;;;;;;;18.75;10.98;;;;;;;;;;5085222;28;20043;-63
2022/03/10 05:17:47;;;;;;;19.35;10.90;;;;;;;;;;5083868;28;20553;-64
2022/03/10 05:20:13;;;;;;;18.73;12.05;;;;;;;;;;5089816;28;20036;-63
2022/03/10 05:22:47;;;;;;;17.33;10.95;;;;;;;;;;5085567;28;20043;-63
2022/03/10 05:25:13;;;;;;;17.58;11.15;;;;;;;;;;5091542;28;20067;-62
2022/03/10 05:27:39;;;;;;;18.42;11.45;;;;;;;;;;5086961;28;20036;-64
2022/03/10 05:30:06;;;;;;;17.98;11.15;;;;;;;;;;5086781;28;20031;-62
2022/03/10 05:32:32;;;;;;;22.52;12.00;;;;;;;;;;5090524;28;20040;-62
2022/03/10 05:35:00;;;;;;;18.80;11.13;;;;;;;;;;5092163;28;20047;-62
2022/03/10 05:37:26;;;;;;;18.25;11.25;;;;;;;;;;5091501;28;20104;-62
2022/03/10 05:39:52;;;;;;;16.02;11.52;;;;;;;;;;5091463;28;20035;-64
2022/03/10 05:42:18;;;;;;;17.17;11.05;;;;;;;;;;5092824;28;20036;-62
2022/03/10 05:44:44;;;;;;;18.52;11.57;;;;;;;;;;5087093;28;20482;-63
2022/03/10 05:47:10;;;;;;;21.45;11.32;;;;;;;;;;5091861;28;20059;-62
2022/03/10 05:49:37;;;;;;;20.83;10.88;;;;;;;;;;5091994;28;20044;-63
2022/03/10 05:52:03;;;;;;;17.77;10.90;;;;;;;;;;5091578;28;20047;-64
2022/03/10 05:54:29;;;;;;;16.58;10.02;;;;;;;;;;5092244;28;20040;-62
2022/03/10 05:56:55;;;;;;;17.55;9.95;;;;;;;;;;5089647;28;20043;-63
2022/03/10 05:59:21;;;;;;;19.77;11.23;;;;;;;;;;5088360;28;20040;-63
2022/03/10 06:01:47;;;;;;;22.35;11.05;;;;;;;;;;5087641;28;20499;-62
2022/03/10 06:04:13;;;;;;;16.45;10.43;;;;;;;;;;5088678;28;20083;-61
2022/03/10 06:06:39;;;;;;;18.38;10.98;;;;;;;;;;5089019;28;20380;-62
2022/03/10 06:09:05;;;;;;;18.83;10.80;;;;;;;;;;5092451;28;20039;-63
2022/03/10 06:11:31;;;;;;;17.98;10.40;;;;;;;;;;5089865;28;20032;-64
2022/03/10 06:13:57;;;;;;;17.33;10.38;;;;;;;;;;5089448;28;20114;-64
2022/03/10 06:16:23;;;;;;;16.95;10.95;;;;;;;;;;5092113;28;20624;-62
2022/03/10 06:18:49;;;;;;;17.08;10.68;;;;;;;;;;5091499;28;20040;-63
2022/03/10 06:21:15;;;;;;;20.35;10.85;;;;;;;;;;5090420;28;20504;-65
2022/03/10 06:23:41;;;;;;;18.98;11.18;;;;;;;;;;5089848;28;20445;-64
2022/03/10 06:26:07;;;;;;;16.65;10.02;;;;;;;;;;5088202;28;20059;-64
2022/03/10 06:28:34;;;;;;;21.27;12.23;;;;;;;;;;5091991;28;20028;-63
2022/03/10 06:31:00;;;;;;;18.92;10.68;;;;;;;;;;5089869;28;20032;-64
2022/03/10 06:33:26;;;;;;;18.05;10.48;;;;;;;;;;5088455;28;20043;-62
2022/03/10 06:35:52;;;;;;;18.85;10.95;;;;;;;;;;5088800;28;20058;-65
2022/03/10 06:38:19;;;;;;;18.23;10.70;;;;;;;;;;5086918;28;20040;-64
2022/03/10 06:40:45;;;;;;;19.48;11.20;;;;;;;;;;5088677;28;20048;-63
2022/03/10 06:43:11;;;;;;;19.25;10.43;;;;;;;;;;5084985;28;20131;-64
2022/03/10 06:45:38;;;;;;;16.45;10.20;;;;;;;;;;5090249;28;20076;-63
2022/03/10 06:48:04;;;;;;;18.70;10.45;;;;;;;;;;5089068;28;20059;-63
2022/03/10 06:50:30;;;;;;;19.08;10.70;;;;;;;;;;5090966;28;20032;-64
2022/03/10 06:52:56;;;;;;;19.45;10.88;;;;;;;;;;5090406;28;20032;-65
2022/03/10 06:55:26;;;;;;;16.08;9.70;;;;;;;;;;5091484;28;20453;-64
2022/03/10 06:57:52;;;;;;;19.83;10.60;;;;;;;;;;5087252;28;20066;-64
2022/03/10 07:00:20;;;;;;;18.27;10.95;;;;;;;;;;5089300;28;20046;-64
2022/03/10 07:02:46;;;;;;;17.13;10.30;;;;;;;;;;5091853;28;20047;-64
2022/03/10 07:05:12;;;;;;;19.02;10.38;;;;;;;;;;5091472;28;20055;-64
2022/03/10 07:07:38;;;;;;;16.38;10.27;;;;;;;;;;5091897;28;20125;-63
2022/03/10 07:10:05;;;;;;;18.10;10.88;;;;;;;;;;5091377;28;20036;-65
2022/03/10 07:12:34;;;;;;;16.88;10.25;;;;;;;;;;5091482;28;20036;-63
2022/03/10 07:15:00;;;;;;;22.65;11.00;;;;;;;;;;5090307;28;20048;-64
2022/03/10 07:17:26;;;;;;;19.85;11.30;;;;;;;;;;5091496;28;20121;-63
2022/03/10 07:19:52;;;;;;;20.88;10.82;;;;;;;;;;5091762;28;20439;-63
2022/03/10 07:22:18;;;;;;;18.02;10.30;;;;;;;;;;5091320;28;20039;-64
2022/03/10 07:24:45;;;;;;;16.17;9.95;;;;;;;;;;5091452;28;20047;-64
2022/03/10 07:27:11;;;;;;;18.30;10.77;;;;;;;;;;5089947;28;20044;-65
2022/03/10 07:29:37;;;;;;;18.27;10.85;;;;;;;;;;5090151;28;20046;-65
2022/03/10 07:32:04;;;;;;;19.95;10.73;;;;;;;;;;5090881;28;20032;-64
2022/03/10 07:34:31;;;;;;;19.05;11.95;;;;;;;;;;5091089;28;20123;-65
2022/03/10 07:36:57;;;;;;;18.13;10.82;;;;;;;;;;5091198;28;20036;-64
2022/03/10 07:39:23;;;;;;;17.13;10.40;;;;;;;;;;5091121;28;20134;-64
2022/03/10 07:41:49;;;;;;;19.10;9.90;;;;;;;;;;5091146;28;20039;-64
2022/03/10 07:44:15;;;;;;;18.60;10.98;;;;;;;;;;5089847;28;20044;-64
2022/03/10 07:46:41;;;;;;;17.25;9.70;;;;;;;;;;5090831;28;20081;-64
2022/03/10 07:49:08;;;;;;;16.17;10.52;;;;;;;;;;5090688;28;20402;-65
2022/03/10 07:51:35;;;;;;;18.65;10.40;;;;;;;;;;5091088;28;20371;-64
2022/03/10 07:54:01;;;;;;;21.60;11.70;;;;;;;;;;5090870;28;20050;-63
2022/03/10 07:56:27;;;;;;;18.63;11.07;;;;;;;;;;5091060;28;20043;-64
2022/03/10 07:58:53;;;;;;;15.90;10.18;;;;;;;;;;5090854;28;20036;-64
2022/03/10 08:01:19;;;;;;;17.17;10.35;;;;;;;;;;5090468;28;20088;-63
2022/03/10 08:03:49;;;;;;;19.98;9.48;;;;;;;;;;5090548;28;20130;-64
2022/03/10 08:06:15;;;;;;;17.77;11.05;;;;;;;;;;5090658;28;20437;-64
2022/03/10 08:08:43;;;;;;;18.23;11.32;;;;;;;;;;5090768;28;20062;-65
2022/03/10 08:11:10;;;;;;;16.38;10.32;;;;;;;;;;5090622;28;20032;-65
2022/03/10 08:13:36;;;;;;;19.02;11.25;;;;;;;;;;5090595;28;20096;-64
2022/03/10 08:16:02;;;;;;;18.08;10.80;;;;;;;;;;5090561;28;20462;-63
2022/03/10 08:18:31;;;;;;;16.95;10.43;;;;;;;;;;5090448;28;20047;-64
2022/03/10 08:20:58;;;;;;;17.73;10.60;;;;;;;;;;5090802;28;20473;-64
2022/03/10 08:23:24;;;;;;;17.55;10.48;;;;;;;;;;5089331;28;20140;-64
2022/03/10 08:25:50;;;;;;;18.10;11.20;;;;;;;;;;5090588;28;20191;-65
2022/03/10 08:28:16;;;;;;;22.88;10.55;;;;;;;;;;5090439;28;20032;-63
2022/03/10 08:30:42;;;;;;;15.65;10.30;;;;;;;;;;5089419;28;20118;-64
2022/03/10 08:33:09;;;;;;;18.75;11.05;;;;;;;;;;5090565;28;20506;-62
2022/03/10 08:35:35;;;;;;;17.52;10.90;;;;;;;;;;5090444;28;20063;-64
2022/03/10 08:38:01;;;;;;;18.35;11.57;;;;;;;;;;5090711;28;20040;-64
2022/03/10 08:40:28;;;;;;;16.63;10.88;;;;;;;;;;5090473;28;20032;-65
2022/03/10 08:42:55;;;;;;;15.75;10.73;;;;;;;;;;5090470;28;20085;-63
2022/03/10 08:45:21;;;;;;;18.95;10.65;;;;;;;;;;5090041;28;20064;-65
2022/03/10 08:47:48;;;;;;;16.92;10.90;;;;;;;;;;5090316;28;20426;-65
2022/03/10 08:50:14;;;;;;;17.85;11.15;;;;;;;;;;5089060;28;20040;-64
2022/03/10 08:52:40;;;;;;;16.25;10.52;;;;;;;;;;5090299;28;20113;-64
2022/03/10 08:55:06;;;;;;;17.58;10.52;;;;;;;;;;5091594;28;20050;-63
2022/03/10 08:57:34;;;;;;;18.17;11.65;;;;;;;;;;5093925;28;20422;-64
2022/03/10 09:00:00;;;;;;;15.65;10.73;;;;;;;;;;5094254;28;20044;-63
2022/03/10 09:02:26;;;;;;;26.25;12.88;;;;;;;;;;5094066;28;20063;-64
2022/03/10 09:04:52;;;;;;;18.98;11.82;;;;;;;;;;5093986;28;20072;-66
2022/03/10 09:07:18;;;;;;;19.17;11.05;;;;;;;;;;5093919;28;20498;-63
2022/03/10 09:09:44;;;;;;;19.95;12.43;;;;;;;;;;5093905;28;20068;-65
2022/03/10 09:12:10;;;;;;;17.83;11.13;;;;;;;;;;5093722;28;20114;-64
2022/03/10 09:14:36;;;;;;;19.60;10.80;;;;;;;;;;5093882;28;20036;-63
2022/03/10 09:17:02;;;;;;;18.55;11.40;;;;;;;;;;5092579;28;20383;-64
2022/03/10 09:19:28;;;;;;;17.13;10.88;;;;;;;;;;5093527;28;20036;-64
2022/03/10 09:21:54;;;;;;;16.60;11.75;;;;;;;;;;5093793;28;20122;-65
2022/03/10 09:24:20;;;;;;;16.65;11.35;;;;;;;;;;5093524;28;20119;-64
2022/03/10 09:26:46;;;;;;;21.25;11.55;;;;;;;;;;5093484;28;20636;-64
2022/03/10 09:29:12;;;;;;;18.52;11.07;;;;;;;;;;5093676;28;20539;-63
2022/03/10 09:31:38;;;;;;;23.60;11.65;;;;;;;;;;5092350;28;20098;-64
2022/03/10 09:34:04;;;;;;;19.38;11.32;;;;;;;;;;5090700;28;20048;-64
2022/03/10 09:36:31;;;;;;;18.33;11.63;;;;;;;;;;5092173;28;20046;-65
2022/03/10 09:38:57;;;;;;;18.60;12.23;;;;;;;;;;5091931;28;20036;-64
2022/03/10 09:41:24;;;;;;;21.42;10.88;;;;;;;;;;5093028;28;20443;-64
2022/03/10 09:43:50;;;;;;;21.70;11.75;;;;;;;;;;5093135;28;20048;-65
2022/03/10 09:46:16;;;;;;;17.58;11.48;;;;;;;;;;5093116;28;20036;-65
2022/03/10 09:48:43;;;;;;;19.38;12.05;;;;;;;;;;5092959;28;20664;-64
2022/03/10 09:51:09;;;;;;;17.52;11.25;;;11.70;94.30;;;;;;5093172;28;20040;-64
2022/03/10 09:53:36;;;;;;;20.02;10.70;;;;;;;;;;5093132;28;20398;-63
2022/03/10 09:56:03;;;;;;;19.23;12.23;;;12.00;95.20;;;;;;5093063;28;20115;-63
2022/03/10 09:58:31;;;;;;;19.52;12.05;;;;;;;;;;5092903;28;20085;-64
2022/03/10 10:01:06;;;;;;;22.50;12.13;;;;;;;;;;5093127;28;20486;-64
2022/03/10 10:03:33;;;;;;;18.60;12.38;;;;;;;;;;5093041;28;20139;-65
2022/03/10 10:06:00;;;;;;;17.50;11.95;;;12.80;94.30;;;;;;5092344;28;20042;-64
2022/03/10 10:08:27;;;;;;;19.17;12.50;;;;;;;;;;5091448;28;20504;-65
2022/03/10 10:10:56;;;;;;;16.23;11.60;;;13.10;94.10;;;;;;5092426;28;20086;-64
2022/03/10 10:13:43;;;;;;;19.15;12.52;;;13.10;93.60;;;;;;5091358;28;20391;-65
2022/03/10 10:16:14;;;;;;;21.58;11.90;;;13.40;93.70;;;;;;5092792;28;20032;-64
2022/03/10 10:18:41;;;;;;;20.38;12.18;;;13.90;93.70;;;;;;5090463;28;20050;-64
2022/03/10 10:21:10;;;;;;;19.00;12.32;;;13.90;93.20;;;;;;5092550;28;20032;-64
2022/03/10 10:23:38;;;;;;;17.75;11.75;;;;;;;;;;5092485;28;20073;-64
2022/03/10 10:26:09;;;;;;;19.98;12.70;;;;;;;;;;5092741;28;20028;-64
2022/03/10 10:28:42;;;;;;;18.98;12.70;;;14.80;92.50;;;;;;5092750;28;20044;-64
2022/03/10 10:31:26;;;;;;;22.23;12.30;;;;;;;;;;5092421;28;20141;-65
2022/03/10 10:34:06;;;;;;;22.17;12.65;;;;;;;;;;5092222;28;20036;-65
2022/03/10 10:36:33;;;;;;;19.60;13.05;;;15.30;91.60;;;;;;5092513;28;20044;-64
2022/03/10 10:39:13;;;;;;;21.27;13.38;;;;;;;;;;5092086;28;20051;-63
2022/03/10 10:41:40;;;;;;;20.98;13.50;;;;;;;;;;5092100;28;20047;-63
2022/03/10 10:44:06;;;;;;;21.17;13.57;;;;;;;;;;5091996;28;20076;-65
2022/03/10 10:46:32;;;;;;;20.50;13.50;;;;;;;;;;5092139;28;20044;-65
2022/03/10 10:49:10;;;;;;;21.20;13.63;;;16.10;90.70;;;;;;5090503;28;20091;-64
2022/03/10 10:51:45;;;;;;;21.60;14.30;;;16.30;90.80;;;;;;5092248;28;20074;-64
2022/03/10 10:54:24;;;;;;;19.40;14.10;;;16.60;90.60;;;;;;5092036;28;20036;-65
2022/03/10 10:57:05;;;;;;;18.40;12.68;;;16.80;90.00;;;;;;5092015;28;20090;-65
2022/03/10 10:59:43;;;;;;;20.33;14.15;;;16.90;89.80;;;;;;5090664;28;20110;-65
2022/03/10 11:02:12;;;;;;;21.75;13.20;;;;;;;;;;5091993;28;20478;-65
2022/03/10 11:04:42;;;;;;;20.05;14.50;;;17.00;88.90;;;;;;5091867;28;20080;-65
2022/03/10 11:07:09;;;;;;;21.90;14.82;;;;;;;;;;5089853;28;20051;-64
2022/03/10 11:09:35;;;;;;;22.00;14.68;;;;;;;;;;5091846;28;20040;-64
2022/03/10 11:12:01;;;;;;;24.38;14.85;;;;;;;;;;5091521;28;20043;-65
2022/03/10 11:14:27;;;;;;;22.65;14.85;;;;;;;;;;5091540;28;20043;-62
2022/03/10 11:16:55;;;;;;;22.50;15.38;;;;;;;;;;5091336;28;20497;-64
2022/03/10 11:19:25;;;;;;;23.20;15.13;;;17.50;86.00;;;;;;5089962;28;20036;-65
2022/03/10 11:21:54;;;;;;;22.27;14.65;;;;;;;;;;5091231;28;20051;-64
2022/03/10 11:24:20;;;;;;;22.00;14.48;;;;;;;;;;5091446;28;20486;-64
2022/03/10 11:26:55;;;;;;;23.73;14.90;;;18.20;87.70;;;;;;5091512;28;20058;-65
2022/03/10 11:29:26;;;;;;;22.85;15.40;;;18.40;86.40;;;;;;5091350;28;20047;-66
2022/03/10 11:31:56;;;;;;;23.58;15.23;;;18.60;86.40;;;;;;5091039;28;20497;-66
2022/03/10 11:34:52;;;;;;;20.05;14.70;;;;;;;;;;5089917;28;20036;-65
2022/03/10 11:37:47;;;;;;;21.00;14.80;;;18.80;83.10;;;;;;5009032;28;20099;-66
2022/03/10 11:40:15;;;;;;;23.75;15.57;;;18.90;84.40;;;;;;5008642;28;20038;-66
2022/03/10 11:42:42;;;;;;;23.23;16.45;;;;;;;;;;5009132;28;20085;-64
2022/03/10 11:45:08;;;;;;;22.23;15.55;;;;;;;;;;5008922;28;20050;-66
2022/03/10 11:47:35;;;;;;;24.00;16.13;;;19.00;83.30;;;;;;5008629;28;20475;-66
2022/03/10 11:50:22;;;;;;;23.23;15.98;;;19.20;82.60;;;;;;5008735;28;20134;-65
2022/03/10 11:52:53;;;;;;;23.45;15.57;;;;;;;;;;5008768;28;20038;-65
2022/03/10 11:55:24;;;;;;;22.55;14.85;;;19.30;82.60;;;;;;4990060;28;20053;-65
2022/03/10 11:57:55;;;;;;;19.85;14.75;;;19.20;80.70;;;;;;5008862;28;20148;-65
2022/03/10 12:00:46;;;;;;;24.08;15.10;;;19.20;82.80;;;;;;5008547;28;20054;-64
2022/03/10 12:03:24;;;;;;;26.00;16.08;;;18.90;81.50;;;;;;5008408;28;20135;-64
2022/03/10 12:05:58;;;;;;;23.55;15.75;;;;;;;;;;5008833;28;20420;-63
2022/03/10 12:08:25;;;;;;;27.88;16.48;;;;;;;;;;5006490;28;20042;-64
2022/03/10 12:10:52;;;;;;;23.75;15.98;;;;;;;;;;5008637;28;20052;-64
2022/03/10 12:13:32;;;;;;;26.75;15.95;;;19.00;82.70;;;;;;5036433;28;20051;-65
2022/03/10 12:15:59;;;;;;;25.63;15.57;;;19.20;81.90;;;;;;5089237;28;20123;-66
2022/03/10 12:18:30;;;;;;;22.85;15.35;;;19.00;82.40;;;;;;5090795;28;20119;-64
2022/03/10 12:20:57;;;;;;;27.00;16.20;;;19.00;81.40;;;;;;5089463;28;20032;-64
2022/03/10 12:23:27;;;;;;;22.75;15.50;;;18.80;80.10;;;;;;5090468;28;20107;-67
2022/03/10 12:25:59;;;;;;;23.65;16.10;;;;;;;;;;5090617;28;20040;-65
2022/03/10 12:28:25;;;;;;;21.40;15.27;;;;;;;;;;5090462;28;20047;-65
2022/03/10 12:31:03;;;;;;;21.08;14.60;;;19.00;83.10;;;;;;5093325;28;20032;-65
2022/03/10 12:33:30;;;;;;;20.13;14.48;;;;;;;;;;5094666;28;20044;-64
2022/03/10 12:35:57;;;;;;;20.88;15.02;;;;;;;;;;5094630;28;20119;-66
2022/03/10 12:38:36;;;;;;;22.88;15.57;;;19.60;81.90;;;;;;5094408;28;20040;-65
2022/03/10 12:41:03;;;;;;;21.40;14.30;;;;;;;;;;5094432;28;20043;-65
2022/03/10 12:43:28;;;;;;;22.25;14.63;;;;;;;;;;5094230;28;20040;-64
2022/03/10 12:45:55;;;;;;;25.10;15.25;;;20.20;90.20;;;;;;5094619;28;20040;-64
2022/03/10 12:48:45;;;;;;;20.00;14.40;;;19.50;80.50;;;;;;5094177;28;20056;-65
2022/03/10 12:51:24;;;;;;;21.45;14.23;;;19.40;82.80;;;;;;5094113;28;20043;-65
2022/03/10 12:53:52;;;;;;;22.65;14.55;;;;;;;;;;5094428;28;20083;-64
2022/03/10 12:56:18;;;;;;;23.00;14.77;;;;;;;;;;5094037;28;20039;-64
2022/03/10 12:58:45;;;;;;;24.42;14.68;;;;;;;;;;5094414;28;20047;-64
2022/03/10 13:01:11;;;;;;;20.75;14.82;;;;;;;;;;5094024;28;20051;-65
2022/03/10 13:03:54;;;;;;;22.05;15.00;;;20.10;82.30;;;;;;5093868;28;20450;-65
2022/03/10 13:06:23;;;;;;;20.65;14.30;;;19.60;81.90;;;;;;5094002;28;20040;-64
2022/03/10 13:08:52;;;;;;;23.63;14.65;;;19.60;82.90;;;;;;5094103;28;20386;-64
2022/03/10 13:11:29;;;;;;;22.80;14.57;;;19.80;83.10;;;;;;5093982;28;20071;-65
2022/03/10 13:14:04;;;;;;;23.30;15.27;;;20.10;81.20;;;;;;5093853;28;20051;-64
2022/03/10 13:16:35;;;;;;;19.75;13.70;;;20.90;82.50;;;;;;5093856;28;20044;-64
2022/03/10 13:19:01;;;;;;;21.77;14.70;;;;;;;;;;5094074;28;20031;-65
2022/03/10 13:21:27;;;;;;;22.55;14.45;;;;;;;;;;5093484;28;20042;-64
2022/03/10 13:23:53;;;;;;;20.48;14.55;;;;;;;;;;5093623;28;20122;-63
2022/03/10 13:26:24;;;;;;;20.75;14.35;;;;;;;;;;5093673;28;20031;-65
2022/03/10 13:28:51;;;;;;;20.23;14.00;;;;;;;;;;5093579;28;20040;-64
2022/03/10 13:31:17;;;;;;;19.13;13.75;;;;;;;;;;5094018;28;20433;-65
2022/03/10 13:33:44;;;;;;;18.77;13.25;;;;;;;;;;5093578;28;20079;-64
2022/03/10 13:36:10;;;;;;;20.80;14.02;;;;;;;;;;5093636;28;20089;-65
2022/03/10 13:38:37;;;;;;;20.33;14.00;;;22.40;77.00;;;;;;5093327;28;20118;-64
2022/03/10 13:41:04;;;;;;;19.45;13.98;;;22.50;78.10;;;;;;5092092;28;20166;-65
2022/03/10 13:43:35;;;;;;;21.30;14.00;;;22.60;75.90;;;;;;5093265;28;20482;-66
2022/03/10 13:46:11;;;;;;;19.08;12.68;;;;;;;;;;5093313;28;20040;-65
2022/03/10 13:48:44;;;;;;;20.65;14.05;;;;;;;;;;5092790;28;20079;-65
2022/03/10 13:51:11;;;;;;;20.45;14.20;;;;;;;;;;5093322;28;20039;-64
2022/03/10 13:53:37;;;;;;;20.70;13.95;;;;;;;;;;5092911;28;20514;-66
2022/03/10 13:56:02;;;;;;;22.38;14.93;;;21.10;89.20;;;;;;5092963;28;20036;-65
2022/03/10 13:58:29;;;;;;;22.35;14.15;;;;;;;;;;5092904;28;20089;-65
2022/03/10 14:01:06;;;;;;;20.92;14.55;;;23.20;77.70;;;;;;5092933;28;20032;-64
2022/03/10 14:03:33;;;;;;;20.27;13.63;;;;;;;;;;5092858;28;20466;-65
2022/03/10 14:06:03;;;;;;;20.67;13.90;;;23.00;76.00;;;;;;5092784;28;20075;-65
2022/03/10 14:08:30;;;;;;;22.23;15.05;;;22.70;76.60;;;;;;5092596;28;20115;-65